sensor_id;sensor_type;location;lat;lon;timestamp;P1;durP1;ratioP1;P2;durP2;ratioP2
78668;SDS011;67984;45.118;20.724;2023-03-12T00:04:30;5.18;;;2.25;;
78668;SDS011;67984;45.118;20.724;2023-03-12T00:14:33;4.65;;;2.38;;
78668;SDS011;67984;45.118;20.724;2023-03-12T00:24:35;3.38;;;2.40;;
78668;SDS011;67984;45.118;20.724;2023-03-12T00:34:36;1.77;;;1.00;;
78668;SDS011;67984;45.118;20.724;2023-03-12T00:44:36;4.40;;;2.23;;
78668;SDS011;67984;45.118;20.724;2023-03-12T00:54:38;5.18;;;2.25;;
78668;SDS011;67984;45.118;20.724;2023-03-12T01:04:57;2.33;;;2.08;;
78668;SDS011;67984;45.118;20.724;2023-03-12T01:14:58;4.47;;;2.17;;
78668;SDS011;67984;45.118;20.724;2023-03-12T01:24:59;2.27;;;1.47;;
78668;SDS011;67984;45.118;20.724;2023-03-12T01:35:00;4.73;;;2.20;;
78668;SDS011;67984;45.118;20.724;2023-03-12T01:45:01;6.90;;;2.50;;
78668;SDS011;67984;45.118;20.724;2023-03-12T02:05:16;2.30;;;1.65;;
78668;SDS011;67984;45.118;20.724;2023-03-12T02:15:24;10.80;;;1.98;;
78668;SDS011;67984;45.118;20.724;2023-03-12T02:35:34;3.88;;;2.28;;
78668;SDS011;67984;45.118;20.724;2023-03-12T02:45:36;4.10;;;3.17;;
78668;SDS011;67984;45.118;20.724;2023-03-12T03:05:38;4.73;;;2.83;;
78668;SDS011;67984;45.118;20.724;2023-03-12T03:15:39;1.80;;;1.67;;
78668;SDS011;67984;45.118;20.724;2023-03-12T03:25:40;7.27;;;2.73;;
78668;SDS011;67984;45.118;20.724;2023-03-12T03:35:41;2.70;;;2.03;;
78668;SDS011;67984;45.118;20.724;2023-03-12T03:45:42;3.05;;;1.95;;
78668;SDS011;67984;45.118;20.724;2023-03-12T03:55:46;5.32;;;2.65;;
78668;SDS011;67984;45.118;20.724;2023-03-12T04:05:55;13.48;;;4.20;;
78668;SDS011;67984;45.118;20.724;2023-03-12T04:15:58;5.72;;;2.83;;
78668;SDS011;67984;45.118;20.724;2023-03-12T04:25:59;8.47;;;3.93;;
78668;SDS011;67984;45.118;20.724;2023-03-12T04:36:01;7.93;;;3.53;;
78668;SDS011;67984;45.118;20.724;2023-03-12T04:46:02;8.27;;;3.67;;
78668;SDS011;67984;45.118;20.724;2023-03-12T04:56:04;4.57;;;2.63;;
78668;SDS011;67984;45.118;20.724;2023-03-12T05:06:06;7.75;;;3.08;;
78668;SDS011;67984;45.118;20.724;2023-03-12T05:16:07;13.57;;;6.65;;
78668;SDS011;67984;45.118;20.724;2023-03-12T05:26:22;28.55;;;9.43;;
78668;SDS011;67984;45.118;20.724;2023-03-12T05:36:28;9.05;;;3.90;;
78668;SDS011;67984;45.118;20.724;2023-03-12T05:46:29;11.27;;;4.85;;
78668;SDS011;67984;45.118;20.724;2023-03-12T05:56:32;4.60;;;3.42;;
78668;SDS011;67984;45.118;20.724;2023-03-12T06:06:36;7.85;;;3.13;;
78668;SDS011;67984;45.118;20.724;2023-03-12T06:16:38;3.60;;;3.00;;
78668;SDS011;67984;45.118;20.724;2023-03-12T06:26:40;25.58;;;9.48;;
78668;SDS011;67984;45.118;20.724;2023-03-12T06:36:40;12.77;;;5.40;;
78668;SDS011;67984;45.118;20.724;2023-03-12T06:46:41;7.50;;;4.03;;
78668;SDS011;67984;45.118;20.724;2023-03-12T06:56:43;12.50;;;6.28;;
78668;SDS011;67984;45.118;20.724;2023-03-12T07:06:45;8.10;;;4.60;;
78668;SDS011;67984;45.118;20.724;2023-03-12T07:16:49;10.65;;;5.05;;
78668;SDS011;67984;45.118;20.724;2023-03-12T07:26:50;22.43;;;11.00;;
78668;SDS011;67984;45.118;20.724;2023-03-12T07:36:51;20.87;;;7.93;;
78668;SDS011;67984;45.118;20.724;2023-03-12T07:46:52;5.77;;;2.70;;
78668;SDS011;67984;45.118;20.724;2023-03-12T07:56:52;14.05;;;5.72;;
78668;SDS011;67984;45.118;20.724;2023-03-12T08:06:53;12.93;;;4.80;;
78668;SDS011;67984;45.118;20.724;2023-03-12T08:16:54;20.53;;;7.13;;
78668;SDS011;67984;45.118;20.724;2023-03-12T08:26:54;21.47;;;6.87;;
78668;SDS011;67984;45.118;20.724;2023-03-12T08:36:56;7.25;;;4.18;;
78668;SDS011;67984;45.118;20.724;2023-03-12T08:46:56;9.33;;;4.60;;
78668;SDS011;67984;45.118;20.724;2023-03-12T08:56:57;11.67;;;4.23;;
78668;SDS011;67984;45.118;20.724;2023-03-12T09:06:59;6.97;;;4.07;;
78668;SDS011;67984;45.118;20.724;2023-03-12T09:17:00;13.77;;;8.13;;
78668;SDS011;67984;45.118;20.724;2023-03-12T09:27:01;6.97;;;3.97;;
78668;SDS011;67984;45.118;20.724;2023-03-12T09:37:03;11.05;;;4.70;;
78668;SDS011;67984;45.118;20.724;2023-03-12T09:47:15;13.20;;;6.00;;
78668;SDS011;67984;45.118;20.724;2023-03-12T09:57:25;9.98;;;5.22;;
78668;SDS011;67984;45.118;20.724;2023-03-12T10:07:37;8.88;;;5.70;;
78668;SDS011;67984;45.118;20.724;2023-03-12T10:18:05;12.95;;;6.65;;
78668;SDS011;67984;45.118;20.724;2023-03-12T10:28:28;19.45;;;7.30;;
78668;SDS011;67984;45.118;20.724;2023-03-12T10:38:30;7.25;;;3.55;;
78668;SDS011;67984;45.118;20.724;2023-03-12T10:48:30;4.28;;;2.95;;
78668;SDS011;67984;45.118;20.724;2023-03-12T10:58:34;9.40;;;4.43;;
78668;SDS011;67984;45.118;20.724;2023-03-12T11:08:37;6.53;;;3.70;;
78668;SDS011;67984;45.118;20.724;2023-03-12T11:18:38;10.43;;;5.43;;
78668;SDS011;67984;45.118;20.724;2023-03-12T11:28:51;6.70;;;4.00;;
78668;SDS011;67984;45.118;20.724;2023-03-12T11:59:50;8.25;;;4.63;;
78668;SDS011;67984;45.118;20.724;2023-03-12T12:40:58;8.23;;;5.47;;
78668;SDS011;67984;45.118;20.724;2023-03-12T12:51:09;10.07;;;3.78;;
78668;SDS011;67984;45.118;20.724;2023-03-12T13:01:13;22.60;;;10.82;;
78668;SDS011;67984;45.118;20.724;2023-03-12T13:21:23;5.83;;;3.23;;
78668;SDS011;67984;45.118;20.724;2023-03-12T13:31:34;2.67;;;2.17;;
78668;SDS011;67984;45.118;20.724;2023-03-12T13:41:40;56.30;;;23.25;;
78668;SDS011;67984;45.118;20.724;2023-03-12T13:51:58;4.70;;;2.85;;
78668;SDS011;67984;45.118;20.724;2023-03-12T14:02:04;5.60;;;3.88;;
78668;SDS011;67984;45.118;20.724;2023-03-12T14:12:16;35.47;;;11.73;;
78668;SDS011;67984;45.118;20.724;2023-03-12T14:22:20;41.47;;;22.83;;
78668;SDS011;67984;45.118;20.724;2023-03-12T14:32:24;13.90;;;6.05;;
78668;SDS011;67984;45.118;20.724;2023-03-12T14:42:29;15.10;;;6.97;;
78668;SDS011;67984;45.118;20.724;2023-03-12T14:52:32;14.30;;;7.18;;
78668;SDS011;67984;45.118;20.724;2023-03-12T15:02:36;10.52;;;5.60;;
78668;SDS011;67984;45.118;20.724;2023-03-12T15:12:37;14.75;;;6.18;;
78668;SDS011;67984;45.118;20.724;2023-03-12T15:22:38;10.65;;;6.00;;
78668;SDS011;67984;45.118;20.724;2023-03-12T15:32:40;18.38;;;7.53;;
78668;SDS011;67984;45.118;20.724;2023-03-12T15:42:41;20.27;;;8.50;;
78668;SDS011;67984;45.118;20.724;2023-03-12T15:52:58;36.97;;;14.25;;
78668;SDS011;67984;45.118;20.724;2023-03-12T16:03:03;18.35;;;8.02;;
78668;SDS011;67984;45.118;20.724;2023-03-12T16:13:08;21.00;;;9.20;;
78668;SDS011;67984;45.118;20.724;2023-03-12T16:23:13;36.45;;;15.65;;
78668;SDS011;67984;45.118;20.724;2023-03-12T16:33:16;44.45;;;18.77;;
78668;SDS011;67984;45.118;20.724;2023-03-12T16:43:20;54.03;;;23.35;;
78668;SDS011;67984;45.118;20.724;2023-03-12T16:53:23;55.92;;;22.70;;
78668;SDS011;67984;45.118;20.724;2023-03-12T17:03:29;138.00;;;42.55;;
78668;SDS011;67984;45.118;20.724;2023-03-12T17:13:34;172.00;;;52.20;;
78668;SDS011;67984;45.118;20.724;2023-03-12T17:23:35;164.02;;;53.35;;
78668;SDS011;67984;45.118;20.724;2023-03-12T17:33:36;282.75;;;92.38;;
78668;SDS011;67984;45.118;20.724;2023-03-12T17:53:38;161.52;;;49.88;;
78668;SDS011;67984;45.118;20.724;2023-03-12T18:03:40;105.18;;;39.35;;
78668;SDS011;67984;45.118;20.724;2023-03-12T18:13:43;106.25;;;40.25;;
78668;SDS011;67984;45.118;20.724;2023-03-12T18:23:46;109.97;;;42.42;;
78668;SDS011;67984;45.118;20.724;2023-03-12T18:33:47;122.77;;;46.03;;
78668;SDS011;67984;45.118;20.724;2023-03-12T18:43:48;132.80;;;43.87;;
78668;SDS011;67984;45.118;20.724;2023-03-12T18:53:48;127.37;;;49.30;;
78668;SDS011;67984;45.118;20.724;2023-03-12T19:03:50;165.77;;;57.10;;
78668;SDS011;67984;45.118;20.724;2023-03-12T19:13:51;160.90;;;54.22;;
78668;SDS011;67984;45.118;20.724;2023-03-12T19:23:52;184.27;;;64.97;;
78668;SDS011;67984;45.118;20.724;2023-03-12T19:33:53;195.77;;;67.53;;
78668;SDS011;67984;45.118;20.724;2023-03-12T19:43:53;226.97;;;77.23;;
78668;SDS011;67984;45.118;20.724;2023-03-12T19:53:54;270.47;;;98.30;;
78668;SDS011;67984;45.118;20.724;2023-03-12T20:03:55;199.30;;;68.90;;
78668;SDS011;67984;45.118;20.724;2023-03-12T20:13:55;234.67;;;86.23;;
78668;SDS011;67984;45.118;20.724;2023-03-12T20:23:57;269.00;;;103.30;;
78668;SDS011;67984;45.118;20.724;2023-03-12T20:33:58;213.30;;;75.97;;
78668;SDS011;67984;45.118;20.724;2023-03-12T20:43:59;222.52;;;85.63;;
78668;SDS011;67984;45.118;20.724;2023-03-12T20:54:00;312.65;;;115.15;;
78668;SDS011;67984;45.118;20.724;2023-03-12T21:04:01;288.70;;;105.73;;
78668;SDS011;67984;45.118;20.724;2023-03-12T21:14:01;249.10;;;89.00;;
78668;SDS011;67984;45.118;20.724;2023-03-12T21:24:02;240.27;;;84.60;;
78668;SDS011;67984;45.118;20.724;2023-03-12T21:34:04;241.07;;;87.90;;
78668;SDS011;67984;45.118;20.724;2023-03-12T21:44:04;217.83;;;81.90;;
78668;SDS011;67984;45.118;20.724;2023-03-12T22:04:07;206.77;;;71.33;;
78668;SDS011;67984;45.118;20.724;2023-03-12T22:14:08;187.57;;;65.17;;
78668;SDS011;67984;45.118;20.724;2023-03-12T22:24:09;132.27;;;47.40;;
78668;SDS011;67984;45.118;20.724;2023-03-12T22:34:10;116.82;;;41.00;;
78668;SDS011;67984;45.118;20.724;2023-03-12T22:44:10;109.87;;;40.23;;
78668;SDS011;67984;45.118;20.724;2023-03-12T22:54:11;59.33;;;23.00;;
78668;SDS011;67984;45.118;20.724;2023-03-12T23:04:12;29.43;;;13.83;;
78668;SDS011;67984;45.118;20.724;2023-03-12T23:14:12;21.43;;;10.73;;
78668;SDS011;67984;45.118;20.724;2023-03-12T23:24:13;22.93;;;10.50;;
78668;SDS011;67984;45.118;20.724;2023-03-12T23:34:14;29.33;;;11.53;;
78668;SDS011;67984;45.118;20.724;2023-03-12T23:44:14;19.53;;;9.17;;
78668;SDS011;67984;45.118;20.724;2023-03-12T23:54:15;18.27;;;8.70;;
